sensor_id;sensor_type;location;lat;lon;timestamp;P1;durP1;ratioP1;P2;durP2;ratioP2
16673;SDS011;8450;52.654;10.326;2023-06-22T05:57:45;4.90;;;4.50;;
16673;SDS011;8450;52.654;10.326;2023-06-22T06:00:11;4.43;;;4.03;;
16673;SDS011;8450;52.654;10.326;2023-06-22T06:02:38;4.57;;;4.23;;
16673;SDS011;8450;52.654;10.326;2023-06-22T06:05:09;4.63;;;4.33;;
16673;SDS011;8450;52.654;10.326;2023-06-22T06:07:41;4.07;;;3.77;;
16673;SDS011;8450;52.654;10.326;2023-06-22T06:10:07;5.60;;;5.20;;
16673;SDS011;8450;52.654;10.326;2023-06-22T06:12:33;5.00;;;4.60;;
16673;SDS011;8450;52.654;10.326;2023-06-22T06:14:59;4.43;;;4.13;;
16673;SDS011;8450;52.654;10.326;2023-06-22T06:17:25;5.00;;;4.60;;
16673;SDS011;8450;52.654;10.326;2023-06-22T06:19:50;5.17;;;4.77;;
16673;SDS011;8450;52.654;10.326;2023-06-22T06:39:09;5.27;;;4.83;;
16673;SDS011;8450;52.654;10.326;2023-06-22T06:41:35;5.77;;;5.37;;
16673;SDS011;8450;52.654;10.326;2023-06-22T06:44:01;5.70;;;5.20;;
16673;SDS011;8450;52.654;10.326;2023-06-22T06:46:26;6.03;;;5.63;;
16673;SDS011;8450;52.654;10.326;2023-06-22T06:48:52;6.50;;;6.00;;
16673;SDS011;8450;52.654;10.326;2023-06-22T06:51:17;6.57;;;6.07;;
16673;SDS011;8450;52.654;10.326;2023-06-22T06:53:43;6.50;;;5.90;;
16673;SDS011;8450;52.654;10.326;2023-06-22T06:56:08;6.27;;;5.77;;
16673;SDS011;8450;52.654;10.326;2023-06-22T06:58:35;6.37;;;5.87;;
16673;SDS011;8450;52.654;10.326;2023-06-22T07:01:02;6.40;;;5.90;;
16673;SDS011;8450;52.654;10.326;2023-06-22T07:03:28;6.23;;;5.73;;
16673;SDS011;8450;52.654;10.326;2023-06-22T07:05:53;6.53;;;5.93;;
16673;SDS011;8450;52.654;10.326;2023-06-22T07:08:19;6.67;;;6.17;;
16673;SDS011;8450;52.654;10.326;2023-06-22T07:10:44;6.70;;;6.20;;
16673;SDS011;8450;52.654;10.326;2023-06-22T07:13:10;6.17;;;5.67;;
16673;SDS011;8450;52.654;10.326;2023-06-22T07:15:36;6.90;;;6.37;;
16673;SDS011;8450;52.654;10.326;2023-06-22T07:18:01;6.50;;;6.00;;
16673;SDS011;8450;52.654;10.326;2023-06-22T07:20:27;6.23;;;5.73;;
16673;SDS011;8450;52.654;10.326;2023-06-22T07:22:52;6.67;;;5.97;;
16673;SDS011;8450;52.654;10.326;2023-06-22T07:25:18;6.00;;;5.60;;
16673;SDS011;8450;52.654;10.326;2023-06-22T07:27:45;6.50;;;5.90;;
16673;SDS011;8450;52.654;10.326;2023-06-22T07:30:12;5.90;;;5.40;;
16673;SDS011;8450;52.654;10.326;2023-06-22T07:32:39;5.63;;;5.23;;
16673;SDS011;8450;52.654;10.326;2023-06-22T07:35:05;5.97;;;5.57;;
16673;SDS011;8450;52.654;10.326;2023-06-22T07:37:31;6.07;;;5.57;;
16673;SDS011;8450;52.654;10.326;2023-06-22T07:39:58;5.17;;;4.77;;
16673;SDS011;8450;52.654;10.326;2023-06-22T07:42:25;6.13;;;5.73;;
16673;SDS011;8450;52.654;10.326;2023-06-22T07:44:51;5.90;;;5.30;;
16673;SDS011;8450;52.654;10.326;2023-06-22T07:47:17;5.90;;;5.40;;
16673;SDS011;8450;52.654;10.326;2023-06-22T07:49:44;5.63;;;5.00;;
16673;SDS011;8450;52.654;10.326;2023-06-22T07:52:10;5.77;;;5.37;;
16673;SDS011;8450;52.654;10.326;2023-06-22T07:54:36;5.67;;;5.17;;
16673;SDS011;8450;52.654;10.326;2023-06-22T07:57:01;5.43;;;4.90;;
16673;SDS011;8450;52.654;10.326;2023-06-22T07:59:27;5.30;;;5.00;;
16673;SDS011;8450;52.654;10.326;2023-06-22T08:01:54;5.97;;;5.47;;
16673;SDS011;8450;52.654;10.326;2023-06-22T08:04:20;5.97;;;5.53;;
16673;SDS011;8450;52.654;10.326;2023-06-22T08:06:46;5.60;;;5.20;;
16673;SDS011;8450;52.654;10.326;2023-06-22T08:09:11;6.30;;;5.75;;
16673;SDS011;8450;52.654;10.326;2023-06-22T08:11:37;5.72;;;5.20;;
16673;SDS011;8450;52.654;10.326;2023-06-22T08:14:03;6.47;;;5.97;;
16673;SDS011;8450;52.654;10.326;2023-06-22T08:16:28;5.68;;;5.18;;
16673;SDS011;8450;52.654;10.326;2023-06-22T08:18:54;5.43;;;5.03;;
16673;SDS011;8450;52.654;10.326;2023-06-22T08:21:20;5.93;;;5.47;;
16673;SDS011;8450;52.654;10.326;2023-06-22T08:23:45;5.25;;;4.85;;
16673;SDS011;8450;52.654;10.326;2023-06-22T08:26:11;5.28;;;4.88;;
16673;SDS011;8450;52.654;10.326;2023-06-22T08:28:36;5.70;;;5.30;;
16673;SDS011;8450;52.654;10.326;2023-06-22T08:31:02;6.18;;;5.60;;
16673;SDS011;8450;52.654;10.326;2023-06-22T08:33:28;6.10;;;5.63;;
16673;SDS011;8450;52.654;10.326;2023-06-22T08:35:55;6.13;;;5.68;;
16673;SDS011;8450;52.654;10.326;2023-06-22T08:38:21;5.80;;;5.30;;
16673;SDS011;8450;52.654;10.326;2023-06-22T08:40:47;6.30;;;5.80;;
16673;SDS011;8450;52.654;10.326;2023-06-22T08:43:13;7.18;;;6.57;;
16673;SDS011;8450;52.654;10.326;2023-06-22T08:45:39;6.85;;;6.25;;
16673;SDS011;8450;52.654;10.326;2023-06-22T08:48:05;7.20;;;6.53;;
16673;SDS011;8450;52.654;10.326;2023-06-22T08:50:30;6.43;;;5.97;;
16673;SDS011;8450;52.654;10.326;2023-06-22T08:52:56;6.22;;;5.72;;
16673;SDS011;8450;52.654;10.326;2023-06-22T08:55:21;6.97;;;6.47;;
16673;SDS011;8450;52.654;10.326;2023-06-22T08:57:47;7.75;;;7.13;;
16673;SDS011;8450;52.654;10.326;2023-06-22T09:00:13;7.97;;;7.43;;
16673;SDS011;8450;52.654;10.326;2023-06-22T09:02:46;10.02;;;9.32;;
16673;SDS011;8450;52.654;10.326;2023-06-22T09:05:12;8.77;;;8.18;;
16673;SDS011;8450;52.654;10.326;2023-06-22T09:07:37;9.60;;;8.88;;
16673;SDS011;8450;52.654;10.326;2023-06-22T09:10:04;9.73;;;9.00;;
16673;SDS011;8450;52.654;10.326;2023-06-22T09:12:30;10.20;;;9.23;;
16673;SDS011;8450;52.654;10.326;2023-06-22T09:14:57;8.90;;;8.30;;
16673;SDS011;8450;52.654;10.326;2023-06-22T09:17:24;9.27;;;8.48;;
16673;SDS011;8450;52.654;10.326;2023-06-22T09:19:50;10.40;;;9.55;;
16673;SDS011;8450;52.654;10.326;2023-06-22T09:22:16;10.15;;;9.25;;
16673;SDS011;8450;52.654;10.326;2023-06-22T09:24:42;10.10;;;9.30;;
16673;SDS011;8450;52.654;10.326;2023-06-22T09:27:07;9.85;;;9.15;;
16673;SDS011;8450;52.654;10.326;2023-06-22T09:29:33;10.07;;;9.23;;
16673;SDS011;8450;52.654;10.326;2023-06-22T09:31:59;9.88;;;9.18;;
16673;SDS011;8450;52.654;10.326;2023-06-22T09:34:25;10.75;;;9.95;;
16673;SDS011;8450;52.654;10.326;2023-06-22T09:36:50;10.65;;;9.85;;
16673;SDS011;8450;52.654;10.326;2023-06-22T09:39:17;10.80;;;10.00;;
16673;SDS011;8450;52.654;10.326;2023-06-22T09:41:43;10.48;;;9.77;;
16673;SDS011;8450;52.654;10.326;2023-06-22T09:44:09;10.68;;;9.82;;
16673;SDS011;8450;52.654;10.326;2023-06-22T09:46:34;10.73;;;9.93;;
16673;SDS011;8450;52.654;10.326;2023-06-22T09:49:00;10.32;;;9.52;;
16673;SDS011;8450;52.654;10.326;2023-06-22T09:51:25;10.88;;;10.18;;
16673;SDS011;8450;52.654;10.326;2023-06-22T09:53:51;10.80;;;9.95;;
16673;SDS011;8450;52.654;10.326;2023-06-22T09:56:18;11.18;;;10.18;;
16673;SDS011;8450;52.654;10.326;2023-06-22T09:58:45;11.25;;;10.35;;
16673;SDS011;8450;52.654;10.326;2023-06-22T10:01:11;11.27;;;10.48;;
16673;SDS011;8450;52.654;10.326;2023-06-22T10:03:39;11.50;;;10.60;;
16673;SDS011;8450;52.654;10.326;2023-06-22T10:06:06;11.38;;;10.57;;
16673;SDS011;8450;52.654;10.326;2023-06-22T10:08:32;12.18;;;11.27;;
16673;SDS011;8450;52.654;10.326;2023-06-22T10:10:57;11.82;;;10.95;;
16673;SDS011;8450;52.654;10.326;2023-06-22T10:13:23;11.40;;;10.50;;
16673;SDS011;8450;52.654;10.326;2023-06-22T10:15:49;11.80;;;10.90;;
16673;SDS011;8450;52.654;10.326;2023-06-22T10:18:20;11.65;;;10.85;;
16673;SDS011;8450;52.654;10.326;2023-06-22T10:20:50;12.23;;;11.10;;
16673;SDS011;8450;52.654;10.326;2023-06-22T10:23:16;12.13;;;11.10;;
